sensor_id;sensor_type;location;lat;lon;timestamp;P1;durP1;ratioP1;P2;durP2;ratioP2
39094;SDS011;24840;47.508;19.376;2023-08-30T00:00:45;6.47;;;1.92;;
39094;SDS011;24840;47.508;19.376;2023-08-30T00:03:11;9.68;;;2.03;;
39094;SDS011;24840;47.508;19.376;2023-08-30T00:05:41;10.10;;;2.10;;
39094;SDS011;24840;47.508;19.376;2023-08-30T00:08:07;3.63;;;2.42;;
39094;SDS011;24840;47.508;19.376;2023-08-30T00:10:33;5.15;;;1.65;;
39094;SDS011;24840;47.508;19.376;2023-08-30T00:12:59;6.65;;;2.05;;
39094;SDS011;24840;47.508;19.376;2023-08-30T00:15:24;6.22;;;2.47;;
39094;SDS011;24840;47.508;19.376;2023-08-30T00:17:50;5.93;;;2.33;;
39094;SDS011;24840;47.508;19.376;2023-08-30T00:20:19;5.45;;;1.58;;
39094;SDS011;24840;47.508;19.376;2023-08-30T00:22:46;6.68;;;2.03;;
39094;SDS011;24840;47.508;19.376;2023-08-30T00:25:13;12.73;;;2.40;;
39094;SDS011;24840;47.508;19.376;2023-08-30T00:27:39;5.97;;;1.77;;
39094;SDS011;24840;47.508;19.376;2023-08-30T00:30:05;4.68;;;1.70;;
39094;SDS011;24840;47.508;19.376;2023-08-30T00:32:33;3.13;;;2.42;;
39094;SDS011;24840;47.508;19.376;2023-08-30T00:34:59;5.88;;;2.20;;
39094;SDS011;24840;47.508;19.376;2023-08-30T00:37:24;8.18;;;2.05;;
39094;SDS011;24840;47.508;19.376;2023-08-30T00:39:50;9.48;;;2.47;;
39094;SDS011;24840;47.508;19.376;2023-08-30T00:42:16;5.18;;;1.88;;
39094;SDS011;24840;47.508;19.376;2023-08-30T00:44:41;4.45;;;1.88;;
39094;SDS011;24840;47.508;19.376;2023-08-30T00:47:07;5.70;;;2.03;;
39094;SDS011;24840;47.508;19.376;2023-08-30T00:49:33;2.33;;;1.63;;
39094;SDS011;24840;47.508;19.376;2023-08-30T00:52:00;6.68;;;2.03;;
39094;SDS011;24840;47.508;19.376;2023-08-30T00:54:28;7.20;;;2.33;;
39094;SDS011;24840;47.508;19.376;2023-08-30T00:56:54;3.67;;;1.98;;
39094;SDS011;24840;47.508;19.376;2023-08-30T00:59:20;8.10;;;2.13;;
39094;SDS011;24840;47.508;19.376;2023-08-30T01:01:47;8.48;;;1.95;;
39094;SDS011;24840;47.508;19.376;2023-08-30T01:04:13;9.00;;;2.17;;
39094;SDS011;24840;47.508;19.376;2023-08-30T01:06:39;5.35;;;1.27;;
39094;SDS011;24840;47.508;19.376;2023-08-30T01:09:06;15.07;;;3.33;;
39094;SDS011;24840;47.508;19.376;2023-08-30T01:12:08;6.40;;;2.10;;
39094;SDS011;24840;47.508;19.376;2023-08-30T01:14:29;6.38;;;3.08;;
39094;SDS011;24840;47.508;19.376;2023-08-30T01:17:03;4.60;;;1.98;;
39094;SDS011;24840;47.508;19.376;2023-08-30T01:19:39;6.90;;;1.92;;
39094;SDS011;24840;47.508;19.376;2023-08-30T01:24:57;6.85;;;2.13;;
39094;SDS011;24840;47.508;19.376;2023-08-30T01:27:36;7.88;;;2.72;;
39094;SDS011;24840;47.508;19.376;2023-08-30T01:30:03;3.97;;;2.15;;
39094;SDS011;24840;47.508;19.376;2023-08-30T01:32:33;8.20;;;2.63;;
39094;SDS011;24840;47.508;19.376;2023-08-30T01:35:01;8.23;;;2.33;;
39094;SDS011;24840;47.508;19.376;2023-08-30T01:37:28;8.18;;;2.95;;
39094;SDS011;24840;47.508;19.376;2023-08-30T01:39:55;10.60;;;2.88;;
39094;SDS011;24840;47.508;19.376;2023-08-30T01:42:22;13.73;;;2.45;;
39094;SDS011;24840;47.508;19.376;2023-08-30T01:44:53;6.32;;;2.03;;
39094;SDS011;24840;47.508;19.376;2023-08-30T01:47:23;8.80;;;1.95;;
39094;SDS011;24840;47.508;19.376;2023-08-30T01:49:52;7.07;;;2.03;;
39094;SDS011;24840;47.508;19.376;2023-08-30T01:52:18;7.57;;;1.80;;
39094;SDS011;24840;47.508;19.376;2023-08-30T01:54:45;5.97;;;1.60;;
39094;SDS011;24840;47.508;19.376;2023-08-30T01:57:12;7.90;;;2.33;;
39094;SDS011;24840;47.508;19.376;2023-08-30T01:59:38;4.70;;;1.83;;
39094;SDS011;24840;47.508;19.376;2023-08-30T02:02:04;6.65;;;2.20;;
39094;SDS011;24840;47.508;19.376;2023-08-30T02:04:30;6.78;;;1.77;;
39094;SDS011;24840;47.508;19.376;2023-08-30T02:07:08;5.07;;;2.30;;
39094;SDS011;24840;47.508;19.376;2023-08-30T02:09:42;6.85;;;2.20;;
39094;SDS011;24840;47.508;19.376;2023-08-30T02:12:12;9.80;;;2.30;;
39094;SDS011;24840;47.508;19.376;2023-08-30T02:14:41;5.00;;;1.88;;
39094;SDS011;24840;47.508;19.376;2023-08-30T02:17:17;6.40;;;2.00;;
39094;SDS011;24840;47.508;19.376;2023-08-30T02:19:43;2.42;;;1.33;;
39094;SDS011;24840;47.508;19.376;2023-08-30T02:22:09;5.95;;;1.75;;
39094;SDS011;24840;47.508;19.376;2023-08-30T02:24:35;2.60;;;1.90;;
39094;SDS011;24840;47.508;19.376;2023-08-30T02:27:01;9.05;;;2.15;;
39094;SDS011;24840;47.508;19.376;2023-08-30T02:29:27;5.63;;;2.20;;
39094;SDS011;24840;47.508;19.376;2023-08-30T02:31:53;11.00;;;2.00;;
39094;SDS011;24840;47.508;19.376;2023-08-30T02:34:18;6.40;;;2.15;;
39094;SDS011;24840;47.508;19.376;2023-08-30T02:36:44;3.13;;;2.00;;
39094;SDS011;24840;47.508;19.376;2023-08-30T02:39:11;6.32;;;2.28;;
39094;SDS011;24840;47.508;19.376;2023-08-30T02:41:39;4.50;;;1.88;;
39094;SDS011;24840;47.508;19.376;2023-08-30T02:44:05;4.88;;;2.90;;
39094;SDS011;24840;47.508;19.376;2023-08-30T02:46:33;9.20;;;2.00;;
39094;SDS011;24840;47.508;19.376;2023-08-30T02:48:58;9.05;;;2.55;;
39094;SDS011;24840;47.508;19.376;2023-08-30T02:51:24;4.20;;;2.00;;
39094;SDS011;24840;47.508;19.376;2023-08-30T02:53:50;7.78;;;2.63;;
39094;SDS011;24840;47.508;19.376;2023-08-30T02:56:15;3.15;;;2.53;;
39094;SDS011;24840;47.508;19.376;2023-08-30T02:58:41;5.25;;;2.63;;
39094;SDS011;24840;47.508;19.376;2023-08-30T03:01:07;5.85;;;2.60;;
39094;SDS011;24840;47.508;19.376;2023-08-30T03:03:33;6.10;;;2.80;;
39094;SDS011;24840;47.508;19.376;2023-08-30T03:05:58;7.53;;;2.83;;
39094;SDS011;24840;47.508;19.376;2023-08-30T03:08:25;5.22;;;3.50;;
39094;SDS011;24840;47.508;19.376;2023-08-30T03:10:51;11.55;;;5.18;;
39094;SDS011;24840;47.508;19.376;2023-08-30T03:13:17;4.18;;;3.35;;
39094;SDS011;24840;47.508;19.376;2023-08-30T03:15:43;4.07;;;3.13;;
39094;SDS011;24840;47.508;19.376;2023-08-30T03:18:08;7.28;;;3.42;;
39094;SDS011;24840;47.508;19.376;2023-08-30T03:20:34;6.90;;;4.43;;
39094;SDS011;24840;47.508;19.376;2023-08-30T03:23:00;4.53;;;3.17;;
39094;SDS011;24840;47.508;19.376;2023-08-30T03:25:28;3.28;;;3.03;;
39094;SDS011;24840;47.508;19.376;2023-08-30T03:27:55;3.55;;;2.53;;
39094;SDS011;24840;47.508;19.376;2023-08-30T03:30:21;9.55;;;3.85;;
39094;SDS011;24840;47.508;19.376;2023-08-30T03:32:47;4.78;;;3.03;;
39094;SDS011;24840;47.508;19.376;2023-08-30T03:35:13;10.65;;;5.40;;
39094;SDS011;24840;47.508;19.376;2023-08-30T03:37:41;5.10;;;2.95;;
39094;SDS011;24840;47.508;19.376;2023-08-30T03:40:07;5.07;;;4.68;;
39094;SDS011;24840;47.508;19.376;2023-08-30T03:42:34;10.07;;;5.05;;
39094;SDS011;24840;47.508;19.376;2023-08-30T03:45:00;3.67;;;3.13;;
39094;SDS011;24840;47.508;19.376;2023-08-30T03:47:26;5.05;;;3.08;;
39094;SDS011;24840;47.508;19.376;2023-08-30T03:49:52;7.20;;;3.58;;
39094;SDS011;24840;47.508;19.376;2023-08-30T03:52:17;15.27;;;5.38;;
39094;SDS011;24840;47.508;19.376;2023-08-30T03:54:43;4.30;;;2.75;;
39094;SDS011;24840;47.508;19.376;2023-08-30T03:57:09;2.70;;;2.50;;
39094;SDS011;24840;47.508;19.376;2023-08-30T03:59:34;3.45;;;3.13;;
39094;SDS011;24840;47.508;19.376;2023-08-30T04:02:00;3.72;;;3.17;;
39094;SDS011;24840;47.508;19.376;2023-08-30T04:04:26;4.40;;;4.07;;
39094;SDS011;24840;47.508;19.376;2023-08-30T04:06:51;3.45;;;2.88;;
39094;SDS011;24840;47.508;19.376;2023-08-30T04:09:17;2.60;;;2.40;;
39094;SDS011;24840;47.508;19.376;2023-08-30T04:11:43;2.90;;;2.67;;
39094;SDS011;24840;47.508;19.376;2023-08-30T04:14:09;8.40;;;3.60;;
39094;SDS011;24840;47.508;19.376;2023-08-30T04:16:35;4.82;;;4.35;;
39094;SDS011;24840;47.508;19.376;2023-08-30T04:19:00;6.50;;;2.90;;
39094;SDS011;24840;47.508;19.376;2023-08-30T04:21:26;3.30;;;2.92;;
39094;SDS011;24840;47.508;19.376;2023-08-30T04:23:52;4.10;;;3.17;;
39094;SDS011;24840;47.508;19.376;2023-08-30T04:26:17;5.13;;;3.25;;
39094;SDS011;24840;47.508;19.376;2023-08-30T04:28:43;3.53;;;2.30;;
39094;SDS011;24840;47.508;19.376;2023-08-30T04:31:09;5.35;;;2.97;;
39094;SDS011;24840;47.508;19.376;2023-08-30T04:33:35;2.90;;;2.70;;
39094;SDS011;24840;47.508;19.376;2023-08-30T04:36:01;3.08;;;2.83;;
39094;SDS011;24840;47.508;19.376;2023-08-30T04:38:29;3.25;;;2.58;;
39094;SDS011;24840;47.508;19.376;2023-08-30T04:40:58;2.83;;;2.63;;
39094;SDS011;24840;47.508;19.376;2023-08-30T04:45:51;4.55;;;4.07;;
39094;SDS011;24840;47.508;19.376;2023-08-30T04:48:17;3.65;;;3.35;;
39094;SDS011;24840;47.508;19.376;2023-08-30T04:50:43;5.25;;;2.60;;
39094;SDS011;24840;47.508;19.376;2023-08-30T04:53:08;4.40;;;3.85;;
39094;SDS011;24840;47.508;19.376;2023-08-30T04:55:34;4.05;;;3.55;;
39094;SDS011;24840;47.508;19.376;2023-08-30T04:58:00;8.43;;;4.75;;
39094;SDS011;24840;47.508;19.376;2023-08-30T05:00:26;5.93;;;4.68;;
39094;SDS011;24840;47.508;19.376;2023-08-30T05:02:51;3.10;;;2.63;;
39094;SDS011;24840;47.508;19.376;2023-08-30T05:05:17;6.32;;;5.40;;
39094;SDS011;24840;47.508;19.376;2023-08-30T05:07:43;4.57;;;3.53;;
39094;SDS011;24840;47.508;19.376;2023-08-30T05:10:09;3.85;;;3.28;;
39094;SDS011;24840;47.508;19.376;2023-08-30T05:12:35;13.13;;;5.72;;
39094;SDS011;24840;47.508;19.376;2023-08-30T05:15:00;5.95;;;4.95;;
39094;SDS011;24840;47.508;19.376;2023-08-30T05:17:26;6.43;;;5.78;;
39094;SDS011;24840;47.508;19.376;2023-08-30T05:19:53;9.55;;;7.20;;
39094;SDS011;24840;47.508;19.376;2023-08-30T05:22:19;6.15;;;5.55;;
39094;SDS011;24840;47.508;19.376;2023-08-30T05:24:45;8.35;;;6.38;;
39094;SDS011;24840;47.508;19.376;2023-08-30T05:27:11;8.10;;;6.72;;
39094;SDS011;24840;47.508;19.376;2023-08-30T05:29:38;10.82;;;7.93;;
39094;SDS011;24840;47.508;19.376;2023-08-30T05:32:04;11.52;;;8.13;;
39094;SDS011;24840;47.508;19.376;2023-08-30T05:34:30;10.40;;;8.73;;
39094;SDS011;24840;47.508;19.376;2023-08-30T05:36:56;8.63;;;7.82;;
39094;SDS011;24840;47.508;19.376;2023-08-30T05:39:21;8.40;;;5.88;;
39094;SDS011;24840;47.508;19.376;2023-08-30T05:41:47;11.60;;;8.18;;
39094;SDS011;24840;47.508;19.376;2023-08-30T05:44:13;9.82;;;8.82;;
39094;SDS011;24840;47.508;19.376;2023-08-30T05:46:39;8.13;;;7.32;;
39094;SDS011;24840;47.508;19.376;2023-08-30T05:49:04;6.88;;;6.03;;
39094;SDS011;24840;47.508;19.376;2023-08-30T05:51:30;6.75;;;6.10;;
39094;SDS011;24840;47.508;19.376;2023-08-30T05:53:56;8.45;;;7.65;;
39094;SDS011;24840;47.508;19.376;2023-08-30T05:56:22;9.98;;;7.72;;
39094;SDS011;24840;47.508;19.376;2023-08-30T05:58:47;8.80;;;7.22;;
39094;SDS011;24840;47.508;19.376;2023-08-30T06:01:13;8.85;;;7.63;;
39094;SDS011;24840;47.508;19.376;2023-08-30T06:03:42;7.05;;;5.35;;
39094;SDS011;24840;47.508;19.376;2023-08-30T06:06:09;8.60;;;7.30;;
39094;SDS011;24840;47.508;19.376;2023-08-30T06:08:35;8.95;;;7.80;;
39094;SDS011;24840;47.508;19.376;2023-08-30T06:11:01;7.35;;;6.65;;
39094;SDS011;24840;47.508;19.376;2023-08-30T06:13:27;12.20;;;7.85;;
39094;SDS011;24840;47.508;19.376;2023-08-30T06:15:53;10.35;;;9.25;;
39094;SDS011;24840;47.508;19.376;2023-08-30T06:18:19;8.15;;;7.35;;
39094;SDS011;24840;47.508;19.376;2023-08-30T06:20:45;10.88;;;7.85;;
39094;SDS011;24840;47.508;19.376;2023-08-30T06:23:10;8.40;;;6.78;;
39094;SDS011;24840;47.508;19.376;2023-08-30T06:25:36;10.43;;;8.55;;
39094;SDS011;24840;47.508;19.376;2023-08-30T06:28:02;9.57;;;7.70;;
39094;SDS011;24840;47.508;19.376;2023-08-30T06:30:28;9.55;;;8.63;;
39094;SDS011;24840;47.508;19.376;2023-08-30T06:32:55;12.63;;;8.40;;
39094;SDS011;24840;47.508;19.376;2023-08-30T06:35:21;10.88;;;8.52;;
39094;SDS011;24840;47.508;19.376;2023-08-30T06:37:47;9.98;;;8.38;;
39094;SDS011;24840;47.508;19.376;2023-08-30T06:40:13;14.13;;;7.88;;
39094;SDS011;24840;47.508;19.376;2023-08-30T06:42:39;10.43;;;7.82;;
39094;SDS011;24840;47.508;19.376;2023-08-30T06:45:05;9.55;;;8.57;;
39094;SDS011;24840;47.508;19.376;2023-08-30T06:47:31;9.00;;;8.10;;
39094;SDS011;24840;47.508;19.376;2023-08-30T06:49:57;9.73;;;8.73;;
39094;SDS011;24840;47.508;19.376;2023-08-30T06:52:24;9.77;;;8.77;;
39094;SDS011;24840;47.508;19.376;2023-08-30T06:54:49;10.18;;;8.93;;
39094;SDS011;24840;47.508;19.376;2023-08-30T06:57:15;10.63;;;8.18;;
39094;SDS011;24840;47.508;19.376;2023-08-30T06:59:41;10.57;;;8.75;;
39094;SDS011;24840;47.508;19.376;2023-08-30T07:02:07;10.00;;;8.70;;
39094;SDS011;24840;47.508;19.376;2023-08-30T07:04:33;10.02;;;8.93;;
39094;SDS011;24840;47.508;19.376;2023-08-30T07:06:59;15.93;;;9.05;;
39094;SDS011;24840;47.508;19.376;2023-08-30T07:09:25;10.13;;;8.05;;
39094;SDS011;24840;47.508;19.376;2023-08-30T07:11:54;10.10;;;9.07;;
39094;SDS011;24840;47.508;19.376;2023-08-30T07:14:20;10.75;;;9.52;;
39094;SDS011;24840;47.508;19.376;2023-08-30T07:16:46;10.95;;;8.70;;
39094;SDS011;24840;47.508;19.376;2023-08-30T07:19:14;10.32;;;9.32;;
39094;SDS011;24840;47.508;19.376;2023-08-30T07:21:41;11.05;;;8.82;;
39094;SDS011;24840;47.508;19.376;2023-08-30T07:24:10;9.93;;;8.85;;
39094;SDS011;24840;47.508;19.376;2023-08-30T07:26:36;11.07;;;8.60;;
39094;SDS011;24840;47.508;19.376;2023-08-30T07:29:02;11.20;;;9.80;;
39094;SDS011;24840;47.508;19.376;2023-08-30T07:31:32;13.00;;;9.02;;
39094;SDS011;24840;47.508;19.376;2023-08-30T07:33:58;13.45;;;8.48;;
39094;SDS011;24840;47.508;19.376;2023-08-30T07:36:25;10.20;;;8.82;;
39094;SDS011;24840;47.508;19.376;2023-08-30T07:38:51;8.60;;;7.50;;
39094;SDS011;24840;47.508;19.376;2023-08-30T07:41:17;10.18;;;9.13;;
39094;SDS011;24840;47.508;19.376;2023-08-30T07:43:43;10.82;;;8.85;;
39094;SDS011;24840;47.508;19.376;2023-08-30T07:46:08;10.68;;;7.95;;
39094;SDS011;24840;47.508;19.376;2023-08-30T07:48:34;10.13;;;8.10;;
39094;SDS011;24840;47.508;19.376;2023-08-30T07:51:00;8.75;;;7.65;;
39094;SDS011;24840;47.508;19.376;2023-08-30T07:53:26;10.18;;;7.45;;
39094;SDS011;24840;47.508;19.376;2023-08-30T07:55:51;7.97;;;6.85;;
39094;SDS011;24840;47.508;19.376;2023-08-30T07:58:17;10.38;;;7.43;;
39094;SDS011;24840;47.508;19.376;2023-08-30T08:00:43;8.50;;;7.15;;
39094;SDS011;24840;47.508;19.376;2023-08-30T08:03:09;8.48;;;6.50;;
39094;SDS011;24840;47.508;19.376;2023-08-30T08:05:35;5.72;;;5.22;;
39094;SDS011;24840;47.508;19.376;2023-08-30T08:08:02;6.43;;;5.30;;
39094;SDS011;24840;47.508;19.376;2023-08-30T08:10:31;8.52;;;5.22;;
39094;SDS011;24840;47.508;19.376;2023-08-30T08:12:58;5.85;;;5.22;;
39094;SDS011;24840;47.508;19.376;2023-08-30T08:15:24;6.25;;;4.97;;
39094;SDS011;24840;47.508;19.376;2023-08-30T08:17:50;7.78;;;5.05;;
39094;SDS011;24840;47.508;19.376;2023-08-30T08:20:16;8.00;;;5.03;;
39094;SDS011;24840;47.508;19.376;2023-08-30T08:22:41;4.43;;;4.03;;
39094;SDS011;24840;47.508;19.376;2023-08-30T08:25:08;6.53;;;4.88;;
39094;SDS011;24840;47.508;19.376;2023-08-30T08:27:35;7.40;;;4.93;;
39094;SDS011;24840;47.508;19.376;2023-08-30T08:30:02;7.93;;;4.75;;
39094;SDS011;24840;47.508;19.376;2023-08-30T08:32:29;6.18;;;4.40;;
39094;SDS011;24840;47.508;19.376;2023-08-30T08:34:55;5.63;;;4.90;;
39094;SDS011;24840;47.508;19.376;2023-08-30T08:37:22;5.15;;;4.57;;
39094;SDS011;24840;47.508;19.376;2023-08-30T08:39:48;5.00;;;4.57;;
39094;SDS011;24840;47.508;19.376;2023-08-30T08:42:16;5.60;;;4.10;;
39094;SDS011;24840;47.508;19.376;2023-08-30T08:44:51;4.57;;;4.00;;
39094;SDS011;24840;47.508;19.376;2023-08-30T08:47:20;7.90;;;4.90;;
39094;SDS011;24840;47.508;19.376;2023-08-30T08:49:49;5.70;;;5.07;;
39094;SDS011;24840;47.508;19.376;2023-08-30T08:52:15;5.78;;;4.43;;
39094;SDS011;24840;47.508;19.376;2023-08-30T08:54:42;5.10;;;4.50;;
39094;SDS011;24840;47.508;19.376;2023-08-30T08:57:09;4.93;;;4.38;;
39094;SDS011;24840;47.508;19.376;2023-08-30T08:59:34;6.82;;;3.97;;
39094;SDS011;24840;47.508;19.376;2023-08-30T09:02:01;5.22;;;4.45;;
39094;SDS011;24840;47.508;19.376;2023-08-30T09:04:30;4.82;;;4.32;;
39094;SDS011;24840;47.508;19.376;2023-08-30T09:07:00;7.10;;;4.55;;
39094;SDS011;24840;47.508;19.376;2023-08-30T09:09:26;4.63;;;4.22;;
39094;SDS011;24840;47.508;19.376;2023-08-30T09:11:52;4.03;;;3.63;;
39094;SDS011;24840;47.508;19.376;2023-08-30T09:14:18;4.43;;;3.13;;
39094;SDS011;24840;47.508;19.376;2023-08-30T09:16:57;4.35;;;3.65;;
39094;SDS011;24840;47.508;19.376;2023-08-30T09:19:25;5.47;;;3.97;;
39094;SDS011;24840;47.508;19.376;2023-08-30T09:21:53;5.13;;;3.53;;
39094;SDS011;24840;47.508;19.376;2023-08-30T09:24:19;5.57;;;5.07;;
39094;SDS011;24840;47.508;19.376;2023-08-30T09:26:49;5.78;;;4.85;;
39094;SDS011;24840;47.508;19.376;2023-08-30T09:29:17;5.13;;;4.30;;
39094;SDS011;24840;47.508;19.376;2023-08-30T09:31:44;6.47;;;5.30;;
39094;SDS011;24840;47.508;19.376;2023-08-30T09:34:10;5.53;;;4.90;;
39094;SDS011;24840;47.508;19.376;2023-08-30T09:36:36;4.75;;;4.35;;
39094;SDS011;24840;47.508;19.376;2023-08-30T09:39:04;6.93;;;4.18;;
39094;SDS011;24840;47.508;19.376;2023-08-30T09:41:40;4.75;;;4.35;;
39094;SDS011;24840;47.508;19.376;2023-08-30T09:44:10;7.32;;;4.47;;
39094;SDS011;24840;47.508;19.376;2023-08-30T09:46:43;4.88;;;3.90;;
39094;SDS011;24840;47.508;19.376;2023-08-30T09:49:18;8.13;;;5.20;;
39094;SDS011;24840;47.508;19.376;2023-08-30T09:51:53;9.15;;;5.07;;
39094;SDS011;24840;47.508;19.376;2023-08-30T09:54:23;6.93;;;5.57;;
39094;SDS011;24840;47.508;19.376;2023-08-30T09:56:50;5.80;;;5.27;;
39094;SDS011;24840;47.508;19.376;2023-08-30T09:59:18;6.38;;;5.78;;
39094;SDS011;24840;47.508;19.376;2023-08-30T10:01:46;7.13;;;5.32;;
39094;SDS011;24840;47.508;19.376;2023-08-30T10:04:13;7.60;;;5.35;;
39094;SDS011;24840;47.508;19.376;2023-08-30T10:06:40;6.40;;;5.75;;
39094;SDS011;24840;47.508;19.376;2023-08-30T10:09:07;7.30;;;5.45;;
39094;SDS011;24840;47.508;19.376;2023-08-30T10:11:37;6.57;;;5.97;;
39094;SDS011;24840;47.508;19.376;2023-08-30T10:14:04;7.15;;;5.45;;
39094;SDS011;24840;47.508;19.376;2023-08-30T10:16:38;11.02;;;6.25;;
39094;SDS011;24840;47.508;19.376;2023-08-30T10:19:09;7.35;;;6.65;;
39094;SDS011;24840;47.508;19.376;2023-08-30T10:21:39;6.93;;;5.47;;
39094;SDS011;24840;47.508;19.376;2023-08-30T10:24:10;7.55;;;6.85;;
39094;SDS011;24840;47.508;19.376;2023-08-30T10:26:40;10.55;;;6.55;;
39094;SDS011;24840;47.508;19.376;2023-08-30T10:29:09;6.53;;;5.78;;
39094;SDS011;24840;47.508;19.376;2023-08-30T10:31:37;7.38;;;6.78;;
39094;SDS011;24840;47.508;19.376;2023-08-30T10:34:11;7.95;;;7.15;;
39094;SDS011;24840;47.508;19.376;2023-08-30T10:36:41;8.13;;;7.20;;
39094;SDS011;24840;47.508;19.376;2023-08-30T10:39:13;7.80;;;7.10;;
39094;SDS011;24840;47.508;19.376;2023-08-30T10:41:58;7.90;;;7.13;;
39094;SDS011;24840;47.508;19.376;2023-08-30T10:44:24;7.40;;;6.70;;
39094;SDS011;24840;47.508;19.376;2023-08-30T10:46:53;9.50;;;8.30;;
39094;SDS011;24840;47.508;19.376;2023-08-30T10:49:19;7.22;;;6.50;;
39094;SDS011;24840;47.508;19.376;2023-08-30T10:51:53;7.70;;;7.07;;
39094;SDS011;24840;47.508;19.376;2023-08-30T10:54:20;11.27;;;7.85;;
39094;SDS011;24840;47.508;19.376;2023-08-30T10:56:55;7.70;;;6.93;;
39094;SDS011;24840;47.508;19.376;2023-08-30T10:59:24;8.52;;;6.72;;
39094;SDS011;24840;47.508;19.376;2023-08-30T11:01:52;8.18;;;7.45;;
39094;SDS011;24840;47.508;19.376;2023-08-30T11:04:19;10.38;;;8.60;;
39094;SDS011;24840;47.508;19.376;2023-08-30T11:06:47;8.68;;;7.75;;
39094;SDS011;24840;47.508;19.376;2023-08-30T11:09:15;9.23;;;7.50;;
39094;SDS011;24840;47.508;19.376;2023-08-30T11:11:49;7.45;;;6.68;;
39094;SDS011;24840;47.508;19.376;2023-08-30T11:14:16;13.13;;;7.15;;
39094;SDS011;24840;47.508;19.376;2023-08-30T11:16:43;11.10;;;6.22;;
39094;SDS011;24840;47.508;19.376;2023-08-30T11:19:12;8.07;;;6.35;;
39094;SDS011;24840;47.508;19.376;2023-08-30T11:21:42;9.15;;;7.03;;
39094;SDS011;24840;47.508;19.376;2023-08-30T11:24:10;10.20;;;6.40;;
39094;SDS011;24840;47.508;19.376;2023-08-30T11:26:37;7.07;;;6.38;;
39094;SDS011;24840;47.508;19.376;2023-08-30T11:29:06;8.52;;;5.90;;
39094;SDS011;24840;47.508;19.376;2023-08-30T11:31:33;7.82;;;6.13;;
39094;SDS011;24840;47.508;19.376;2023-08-30T11:33:59;6.60;;;5.97;;
39094;SDS011;24840;47.508;19.376;2023-08-30T11:36:26;5.63;;;5.13;;
39094;SDS011;24840;47.508;19.376;2023-08-30T11:41:23;6.68;;;6.00;;
39094;SDS011;24840;47.508;19.376;2023-08-30T11:43:50;8.77;;;5.88;;
39094;SDS011;24840;47.508;19.376;2023-08-30T11:46:16;7.43;;;6.60;;
39094;SDS011;24840;47.508;19.376;2023-08-30T11:48:43;5.57;;;4.93;;
39094;SDS011;24840;47.508;19.376;2023-08-30T11:51:10;7.53;;;6.18;;
39094;SDS011;24840;47.508;19.376;2023-08-30T11:53:36;6.72;;;6.07;;
39094;SDS011;24840;47.508;19.376;2023-08-30T11:56:03;6.65;;;6.03;;
39094;SDS011;24840;47.508;19.376;2023-08-30T11:58:36;6.10;;;5.60;;
39094;SDS011;24840;47.508;19.376;2023-08-30T12:01:02;6.15;;;5.55;;
39094;SDS011;24840;47.508;19.376;2023-08-30T12:03:29;5.82;;;5.32;;
39094;SDS011;24840;47.508;19.376;2023-08-30T12:05:56;5.68;;;4.68;;
39094;SDS011;24840;47.508;19.376;2023-08-30T12:08:24;6.25;;;5.70;;
39094;SDS011;24840;47.508;19.376;2023-08-30T12:10:51;9.77;;;4.93;;
39094;SDS011;24840;47.508;19.376;2023-08-30T12:13:21;5.72;;;5.20;;
39094;SDS011;24840;47.508;19.376;2023-08-30T12:15:55;5.20;;;4.70;;
39094;SDS011;24840;47.508;19.376;2023-08-30T12:18:28;4.95;;;4.45;;
39094;SDS011;24840;47.508;19.376;2023-08-30T12:21:03;5.78;;;5.18;;
39094;SDS011;24840;47.508;19.376;2023-08-30T12:23:30;5.80;;;5.30;;
39094;SDS011;24840;47.508;19.376;2023-08-30T12:26:04;4.80;;;4.40;;
39094;SDS011;24840;47.508;19.376;2023-08-30T12:28:34;4.28;;;3.90;;
39094;SDS011;24840;47.508;19.376;2023-08-30T12:31:01;7.47;;;5.03;;
39094;SDS011;24840;47.508;19.376;2023-08-30T12:33:29;4.68;;;3.90;;
39094;SDS011;24840;47.508;19.376;2023-08-30T12:35:55;7.63;;;4.80;;
39094;SDS011;24840;47.508;19.376;2023-08-30T12:38:21;4.30;;;3.58;;
39094;SDS011;24840;47.508;19.376;2023-08-30T12:40:49;4.22;;;3.83;;
39094;SDS011;24840;47.508;19.376;2023-08-30T12:43:21;3.83;;;3.53;;
39094;SDS011;24840;47.508;19.376;2023-08-30T12:45:48;4.88;;;3.83;;
39094;SDS011;24840;47.508;19.376;2023-08-30T12:48:15;3.42;;;3.13;;
39094;SDS011;24840;47.508;19.376;2023-08-30T12:50:42;3.90;;;3.50;;
39094;SDS011;24840;47.508;19.376;2023-08-30T12:53:10;5.70;;;3.42;;
39094;SDS011;24840;47.508;19.376;2023-08-30T12:55:36;4.63;;;3.38;;
39094;SDS011;24840;47.508;19.376;2023-08-30T12:58:05;4.45;;;3.80;;
39094;SDS011;24840;47.508;19.376;2023-08-30T13:00:32;3.83;;;3.53;;
39094;SDS011;24840;47.508;19.376;2023-08-30T13:02:58;4.38;;;3.20;;
39094;SDS011;24840;47.508;19.376;2023-08-30T13:05:24;3.53;;;3.03;;
39094;SDS011;24840;47.508;19.376;2023-08-30T13:07:50;3.28;;;2.97;;
39094;SDS011;24840;47.508;19.376;2023-08-30T13:10:16;5.68;;;3.40;;
39094;SDS011;24840;47.508;19.376;2023-08-30T13:12:42;3.85;;;3.55;;
39094;SDS011;24840;47.508;19.376;2023-08-30T13:15:08;5.10;;;3.45;;
39094;SDS011;24840;47.508;19.376;2023-08-30T13:17:34;4.25;;;3.03;;
39094;SDS011;24840;47.508;19.376;2023-08-30T13:20:00;3.25;;;2.92;;
39094;SDS011;24840;47.508;19.376;2023-08-30T13:22:27;3.47;;;3.17;;
39094;SDS011;24840;47.508;19.376;2023-08-30T13:24:53;4.07;;;3.58;;
39094;SDS011;24840;47.508;19.376;2023-08-30T13:27:19;3.22;;;2.90;;
39094;SDS011;24840;47.508;19.376;2023-08-30T13:29:45;4.30;;;2.80;;
39094;SDS011;24840;47.508;19.376;2023-08-30T13:32:11;3.67;;;2.83;;
39094;SDS011;24840;47.508;19.376;2023-08-30T13:34:37;3.22;;;2.92;;
39094;SDS011;24840;47.508;19.376;2023-08-30T13:37:03;3.17;;;2.83;;
39094;SDS011;24840;47.508;19.376;2023-08-30T13:39:29;3.08;;;2.88;;
39094;SDS011;24840;47.508;19.376;2023-08-30T13:41:55;3.25;;;2.95;;
39094;SDS011;24840;47.508;19.376;2023-08-30T13:44:21;3.50;;;3.20;;
39094;SDS011;24840;47.508;19.376;2023-08-30T13:46:46;2.67;;;2.47;;
39094;SDS011;24840;47.508;19.376;2023-08-30T13:49:13;2.72;;;2.50;;
39094;SDS011;24840;47.508;19.376;2023-08-30T13:51:40;3.50;;;3.05;;
39094;SDS011;24840;47.508;19.376;2023-08-30T13:54:06;4.70;;;2.75;;
39094;SDS011;24840;47.508;19.376;2023-08-30T13:56:32;3.28;;;2.97;;
39094;SDS011;24840;47.508;19.376;2023-08-30T13:58:58;3.20;;;2.92;;
39094;SDS011;24840;47.508;19.376;2023-08-30T14:01:23;3.60;;;3.30;;
39094;SDS011;24840;47.508;19.376;2023-08-30T14:03:49;4.75;;;3.05;;
39094;SDS011;24840;47.508;19.376;2023-08-30T14:06:15;3.28;;;2.97;;
39094;SDS011;24840;47.508;19.376;2023-08-30T14:08:41;4.18;;;2.65;;
39094;SDS011;24840;47.508;19.376;2023-08-30T14:11:08;2.97;;;2.70;;
39094;SDS011;24840;47.508;19.376;2023-08-30T14:13:34;3.33;;;2.75;;
39094;SDS011;24840;47.508;19.376;2023-08-30T14:16:02;4.68;;;2.80;;
39094;SDS011;24840;47.508;19.376;2023-08-30T14:20:57;3.67;;;3.33;;
39094;SDS011;24840;47.508;19.376;2023-08-30T14:23:24;3.03;;;2.50;;
39094;SDS011;24840;47.508;19.376;2023-08-30T14:25:59;9.18;;;3.22;;
39094;SDS011;24840;47.508;19.376;2023-08-30T14:28:26;4.60;;;2.58;;
39094;SDS011;24840;47.508;19.376;2023-08-30T14:30:52;5.47;;;2.80;;
39094;SDS011;24840;47.508;19.376;2023-08-30T14:33:19;7.05;;;2.90;;
39094;SDS011;24840;47.508;19.376;2023-08-30T14:35:45;8.40;;;2.67;;
39094;SDS011;24840;47.508;19.376;2023-08-30T14:38:11;2.63;;;2.42;;
39094;SDS011;24840;47.508;19.376;2023-08-30T14:40:37;3.97;;;3.33;;
39094;SDS011;24840;47.508;19.376;2023-08-30T14:43:03;3.95;;;3.17;;